sensor_id;sensor_type;location;lat;lon;timestamp;temperature;humidity
5164;DHT22;2601;50.224;10.126;2022-10-18T00:00:36;13.60;99.90
5164;DHT22;2601;50.224;10.126;2022-10-18T00:03:01;13.70;99.90
5164;DHT22;2601;50.224;10.126;2022-10-18T00:05:27;13.70;99.90
5164;DHT22;2601;50.224;10.126;2022-10-18T00:07:53;13.60;99.90
5164;DHT22;2601;50.224;10.126;2022-10-18T00:10:18;13.60;99.90
5164;DHT22;2601;50.224;10.126;2022-10-18T00:12:44;13.50;99.90
5164;DHT22;2601;50.224;10.126;2022-10-18T00:15:10;13.40;99.90
5164;DHT22;2601;50.224;10.126;2022-10-18T00:17:37;13.40;99.90
5164;DHT22;2601;50.224;10.126;2022-10-18T00:20:04;13.30;99.90
5164;DHT22;2601;50.224;10.126;2022-10-18T00:22:30;13.30;99.90
5164;DHT22;2601;50.224;10.126;2022-10-18T00:24:58;13.20;99.90
5164;DHT22;2601;50.224;10.126;2022-10-18T00:27:23;13.30;99.90
5164;DHT22;2601;50.224;10.126;2022-10-18T00:29:52;13.40;99.90
5164;DHT22;2601;50.224;10.126;2022-10-18T00:32:17;13.30;99.90
5164;DHT22;2601;50.224;10.126;2022-10-18T00:34:43;13.40;99.90
5164;DHT22;2601;50.224;10.126;2022-10-18T00:37:09;13.40;99.90
5164;DHT22;2601;50.224;10.126;2022-10-18T00:39:34;13.30;99.90
5164;DHT22;2601;50.224;10.126;2022-10-18T00:42:00;13.30;99.90
5164;DHT22;2601;50.224;10.126;2022-10-18T00:46:57;13.30;99.90
5164;DHT22;2601;50.224;10.126;2022-10-18T00:49:32;13.10;99.90
5164;DHT22;2601;50.224;10.126;2022-10-18T00:52:00;13.20;99.90
5164;DHT22;2601;50.224;10.126;2022-10-18T00:54:29;13.20;99.90
5164;DHT22;2601;50.224;10.126;2022-10-18T00:56:55;13.10;99.90
5164;DHT22;2601;50.224;10.126;2022-10-18T00:59:22;13.10;99.90
5164;DHT22;2601;50.224;10.126;2022-10-18T01:01:47;13.10;99.90
5164;DHT22;2601;50.224;10.126;2022-10-18T01:04:15;13.00;99.90
5164;DHT22;2601;50.224;10.126;2022-10-18T01:15:12;13.00;99.90
5164;DHT22;2601;50.224;10.126;2022-10-18T01:23:44;13.00;99.90
5164;DHT22;2601;50.224;10.126;2022-10-18T01:31:46;13.00;99.90
5164;DHT22;2601;50.224;10.126;2022-10-18T01:34:16;13.00;99.90
5164;DHT22;2601;50.224;10.126;2022-10-18T01:36:51;13.30;99.90
5164;DHT22;2601;50.224;10.126;2022-10-18T01:39:22;13.30;99.90
5164;DHT22;2601;50.224;10.126;2022-10-18T01:41:50;13.20;99.90
5164;DHT22;2601;50.224;10.126;2022-10-18T01:44:22;13.10;99.90
5164;DHT22;2601;50.224;10.126;2022-10-18T01:46:51;13.40;99.90
5164;DHT22;2601;50.224;10.126;2022-10-18T01:49:17;13.30;99.90
5164;DHT22;2601;50.224;10.126;2022-10-18T01:51:42;13.30;99.90
5164;DHT22;2601;50.224;10.126;2022-10-18T01:54:09;13.20;99.90
5164;DHT22;2601;50.224;10.126;2022-10-18T02:04:43;13.10;99.90
5164;DHT22;2601;50.224;10.126;2022-10-18T02:09:51;13.10;99.90
5164;DHT22;2601;50.224;10.126;2022-10-18T02:12:21;13.40;99.90
5164;DHT22;2601;50.224;10.126;2022-10-18T02:14:48;13.60;99.90
5164;DHT22;2601;50.224;10.126;2022-10-18T02:17:16;13.60;99.90
5164;DHT22;2601;50.224;10.126;2022-10-18T02:19:48;13.50;99.90
5164;DHT22;2601;50.224;10.126;2022-10-18T02:22:16;13.40;99.90
5164;DHT22;2601;50.224;10.126;2022-10-18T02:24:47;13.50;99.90
5164;DHT22;2601;50.224;10.126;2022-10-18T02:27:14;13.50;99.90
5164;DHT22;2601;50.224;10.126;2022-10-18T02:29:40;13.30;99.90
5164;DHT22;2601;50.224;10.126;2022-10-18T02:32:39;13.30;99.90
5164;DHT22;2601;50.224;10.126;2022-10-18T02:35:07;13.30;99.90
5164;DHT22;2601;50.224;10.126;2022-10-18T02:37:39;13.20;99.90
5164;DHT22;2601;50.224;10.126;2022-10-18T02:40:07;13.20;99.90
5164;DHT22;2601;50.224;10.126;2022-10-18T02:42:36;13.20;99.90
5164;DHT22;2601;50.224;10.126;2022-10-18T02:45:06;13.20;99.90
5164;DHT22;2601;50.224;10.126;2022-10-18T02:47:32;13.20;99.90
5164;DHT22;2601;50.224;10.126;2022-10-18T02:49:57;13.40;99.90
5164;DHT22;2601;50.224;10.126;2022-10-18T02:52:23;13.40;99.90
5164;DHT22;2601;50.224;10.126;2022-10-18T02:54:49;13.30;99.90
5164;DHT22;2601;50.224;10.126;2022-10-18T02:57:15;13.30;99.90
5164;DHT22;2601;50.224;10.126;2022-10-18T02:59:43;13.30;99.90
5164;DHT22;2601;50.224;10.126;2022-10-18T03:02:09;13.30;99.90
5164;DHT22;2601;50.224;10.126;2022-10-18T03:04:35;13.30;99.90
5164;DHT22;2601;50.224;10.126;2022-10-18T03:07:00;13.40;99.90
5164;DHT22;2601;50.224;10.126;2022-10-18T03:09:26;13.50;99.90
5164;DHT22;2601;50.224;10.126;2022-10-18T03:11:52;13.40;99.90
5164;DHT22;2601;50.224;10.126;2022-10-18T03:14:17;13.40;99.90
5164;DHT22;2601;50.224;10.126;2022-10-18T03:16:43;13.40;99.90
5164;DHT22;2601;50.224;10.126;2022-10-18T03:19:09;13.40;99.90
5164;DHT22;2601;50.224;10.126;2022-10-18T03:21:34;13.40;99.90
5164;DHT22;2601;50.224;10.126;2022-10-18T03:24:01;13.30;99.90
5164;DHT22;2601;50.224;10.126;2022-10-18T03:26:26;13.30;99.90
5164;DHT22;2601;50.224;10.126;2022-10-18T03:28:52;13.30;99.90
5164;DHT22;2601;50.224;10.126;2022-10-18T03:31:18;13.30;99.90
5164;DHT22;2601;50.224;10.126;2022-10-18T03:33:44;13.40;99.90
5164;DHT22;2601;50.224;10.126;2022-10-18T03:36:10;13.60;99.90
5164;DHT22;2601;50.224;10.126;2022-10-18T03:38:36;13.70;99.90
5164;DHT22;2601;50.224;10.126;2022-10-18T03:41:02;13.60;99.90
5164;DHT22;2601;50.224;10.126;2022-10-18T03:43:28;13.50;99.90
5164;DHT22;2601;50.224;10.126;2022-10-18T03:45:54;13.50;99.90
5164;DHT22;2601;50.224;10.126;2022-10-18T03:48:20;13.60;99.90
5164;DHT22;2601;50.224;10.126;2022-10-18T03:50:46;13.80;99.90
5164;DHT22;2601;50.224;10.126;2022-10-18T03:53:11;13.90;99.90
5164;DHT22;2601;50.224;10.126;2022-10-18T03:55:37;13.70;99.90
5164;DHT22;2601;50.224;10.126;2022-10-18T03:58:03;13.70;99.90
5164;DHT22;2601;50.224;10.126;2022-10-18T04:00:29;13.80;99.90
5164;DHT22;2601;50.224;10.126;2022-10-18T04:02:54;13.80;99.90
5164;DHT22;2601;50.224;10.126;2022-10-18T04:05:21;13.80;99.90
5164;DHT22;2601;50.224;10.126;2022-10-18T04:07:48;13.70;99.90
5164;DHT22;2601;50.224;10.126;2022-10-18T04:10:14;13.60;99.90
5164;DHT22;2601;50.224;10.126;2022-10-18T04:12:40;13.60;99.90
5164;DHT22;2601;50.224;10.126;2022-10-18T04:15:06;13.50;99.90
5164;DHT22;2601;50.224;10.126;2022-10-18T04:17:32;13.50;99.90
5164;DHT22;2601;50.224;10.126;2022-10-18T04:19:58;13.50;99.90
5164;DHT22;2601;50.224;10.126;2022-10-18T04:22:23;13.50;99.90
5164;DHT22;2601;50.224;10.126;2022-10-18T04:24:49;13.50;99.90
5164;DHT22;2601;50.224;10.126;2022-10-18T04:27:15;13.60;99.90
5164;DHT22;2601;50.224;10.126;2022-10-18T04:29:41;13.60;99.90
5164;DHT22;2601;50.224;10.126;2022-10-18T04:32:06;13.80;99.90
5164;DHT22;2601;50.224;10.126;2022-10-18T04:34:32;13.90;99.90
5164;DHT22;2601;50.224;10.126;2022-10-18T04:36:58;13.90;99.90
5164;DHT22;2601;50.224;10.126;2022-10-18T04:39:24;13.80;99.90
5164;DHT22;2601;50.224;10.126;2022-10-18T04:41:49;13.70;99.90
5164;DHT22;2601;50.224;10.126;2022-10-18T04:44:15;13.60;99.90
5164;DHT22;2601;50.224;10.126;2022-10-18T04:46:41;13.60;99.90
5164;DHT22;2601;50.224;10.126;2022-10-18T04:49:06;13.60;99.90
5164;DHT22;2601;50.224;10.126;2022-10-18T04:51:32;13.70;99.90
5164;DHT22;2601;50.224;10.126;2022-10-18T04:53:58;13.80;99.90
5164;DHT22;2601;50.224;10.126;2022-10-18T04:56:23;13.80;99.90
5164;DHT22;2601;50.224;10.126;2022-10-18T04:58:49;13.70;99.90
5164;DHT22;2601;50.224;10.126;2022-10-18T05:01:15;13.70;99.90
5164;DHT22;2601;50.224;10.126;2022-10-18T05:03:41;13.60;99.90
5164;DHT22;2601;50.224;10.126;2022-10-18T05:06:07;13.60;99.90
5164;DHT22;2601;50.224;10.126;2022-10-18T05:08:34;13.70;99.90
5164;DHT22;2601;50.224;10.126;2022-10-18T05:11:01;13.90;99.90
5164;DHT22;2601;50.224;10.126;2022-10-18T05:13:28;14.00;99.90
5164;DHT22;2601;50.224;10.126;2022-10-18T05:15:53;13.90;99.90
5164;DHT22;2601;50.224;10.126;2022-10-18T05:18:19;13.90;99.90
5164;DHT22;2601;50.224;10.126;2022-10-18T05:20:45;14.00;99.90
5164;DHT22;2601;50.224;10.126;2022-10-18T05:23:11;14.10;99.90
5164;DHT22;2601;50.224;10.126;2022-10-18T05:25:41;14.00;99.90
5164;DHT22;2601;50.224;10.126;2022-10-18T05:28:07;14.00;99.90
5164;DHT22;2601;50.224;10.126;2022-10-18T05:30:33;14.00;99.90
5164;DHT22;2601;50.224;10.126;2022-10-18T05:33:01;13.90;99.90
5164;DHT22;2601;50.224;10.126;2022-10-18T05:35:27;13.80;99.90
5164;DHT22;2601;50.224;10.126;2022-10-18T05:37:52;13.70;99.90
5164;DHT22;2601;50.224;10.126;2022-10-18T05:40:18;13.80;99.90
5164;DHT22;2601;50.224;10.126;2022-10-18T05:42:44;13.80;99.90
5164;DHT22;2601;50.224;10.126;2022-10-18T05:45:09;13.80;99.90
5164;DHT22;2601;50.224;10.126;2022-10-18T05:47:35;13.80;99.90
5164;DHT22;2601;50.224;10.126;2022-10-18T05:50:01;13.70;99.90
5164;DHT22;2601;50.224;10.126;2022-10-18T05:52:26;13.70;99.90
5164;DHT22;2601;50.224;10.126;2022-10-18T05:54:52;13.60;99.90
5164;DHT22;2601;50.224;10.126;2022-10-18T05:57:18;13.60;99.90
5164;DHT22;2601;50.224;10.126;2022-10-18T05:59:43;13.50;99.90
5164;DHT22;2601;50.224;10.126;2022-10-18T06:02:11;13.50;99.90
5164;DHT22;2601;50.224;10.126;2022-10-18T06:04:36;13.50;99.90
5164;DHT22;2601;50.224;10.126;2022-10-18T06:07:03;13.60;99.90
5164;DHT22;2601;50.224;10.126;2022-10-18T06:09:32;13.60;99.90
5164;DHT22;2601;50.224;10.126;2022-10-18T06:11:57;13.70;99.90
5164;DHT22;2601;50.224;10.126;2022-10-18T06:14:23;13.60;99.90
5164;DHT22;2601;50.224;10.126;2022-10-18T06:16:48;13.70;99.90
5164;DHT22;2601;50.224;10.126;2022-10-18T06:19:15;13.70;99.90
5164;DHT22;2601;50.224;10.126;2022-10-18T06:21:41;13.80;99.90
5164;DHT22;2601;50.224;10.126;2022-10-18T06:24:07;13.90;99.90
5164;DHT22;2601;50.224;10.126;2022-10-18T06:26:33;14.00;99.90
5164;DHT22;2601;50.224;10.126;2022-10-18T06:28:59;14.00;99.90
5164;DHT22;2601;50.224;10.126;2022-10-18T06:31:24;14.10;99.90
5164;DHT22;2601;50.224;10.126;2022-10-18T06:33:50;14.00;99.90
5164;DHT22;2601;50.224;10.126;2022-10-18T06:36:18;14.10;99.90
5164;DHT22;2601;50.224;10.126;2022-10-18T06:38:46;14.20;99.90
5164;DHT22;2601;50.224;10.126;2022-10-18T06:41:12;14.20;99.90
5164;DHT22;2601;50.224;10.126;2022-10-18T06:43:38;14.40;99.90
5164;DHT22;2601;50.224;10.126;2022-10-18T06:46:05;14.60;99.90
5164;DHT22;2601;50.224;10.126;2022-10-18T06:48:34;14.60;99.90
5164;DHT22;2601;50.224;10.126;2022-10-18T06:51:02;14.90;99.90
5164;DHT22;2601;50.224;10.126;2022-10-18T06:53:31;15.00;99.90
5164;DHT22;2601;50.224;10.126;2022-10-18T06:56:09;15.10;99.90
5164;DHT22;2601;50.224;10.126;2022-10-18T06:58:35;15.10;99.90
5164;DHT22;2601;50.224;10.126;2022-10-18T07:01:09;15.10;99.90
5164;DHT22;2601;50.224;10.126;2022-10-18T07:03:36;15.10;99.90
5164;DHT22;2601;50.224;10.126;2022-10-18T07:06:03;15.10;99.90
5164;DHT22;2601;50.224;10.126;2022-10-18T07:08:30;15.00;99.90
5164;DHT22;2601;50.224;10.126;2022-10-18T07:10:56;15.00;99.90
5164;DHT22;2601;50.224;10.126;2022-10-18T07:13:22;15.00;99.90
5164;DHT22;2601;50.224;10.126;2022-10-18T07:15:48;15.00;99.90
5164;DHT22;2601;50.224;10.126;2022-10-18T07:18:14;15.00;99.90
5164;DHT22;2601;50.224;10.126;2022-10-18T07:20:40;15.00;99.90
5164;DHT22;2601;50.224;10.126;2022-10-18T07:23:05;15.00;99.90
5164;DHT22;2601;50.224;10.126;2022-10-18T07:25:34;15.20;99.90
5164;DHT22;2601;50.224;10.126;2022-10-18T07:28:00;15.30;99.90
5164;DHT22;2601;50.224;10.126;2022-10-18T07:30:25;15.20;99.90
5164;DHT22;2601;50.224;10.126;2022-10-18T07:32:51;15.20;99.90
5164;DHT22;2601;50.224;10.126;2022-10-18T07:35:17;15.30;99.90
5164;DHT22;2601;50.224;10.126;2022-10-18T07:37:43;15.40;99.90
5164;DHT22;2601;50.224;10.126;2022-10-18T07:40:09;15.30;99.90
5164;DHT22;2601;50.224;10.126;2022-10-18T07:42:36;15.40;99.90
5164;DHT22;2601;50.224;10.126;2022-10-18T07:45:02;15.50;99.90
5164;DHT22;2601;50.224;10.126;2022-10-18T07:47:28;15.50;99.90
5164;DHT22;2601;50.224;10.126;2022-10-18T07:49:53;15.60;99.90
5164;DHT22;2601;50.224;10.126;2022-10-18T07:52:19;15.70;99.90
5164;DHT22;2601;50.224;10.126;2022-10-18T07:54:45;15.70;99.90
5164;DHT22;2601;50.224;10.126;2022-10-18T07:57:10;15.80;99.90
5164;DHT22;2601;50.224;10.126;2022-10-18T07:59:36;15.90;99.90
5164;DHT22;2601;50.224;10.126;2022-10-18T08:02:03;16.10;99.90
5164;DHT22;2601;50.224;10.126;2022-10-18T08:04:29;16.40;99.90
5164;DHT22;2601;50.224;10.126;2022-10-18T08:06:54;16.80;99.90
5164;DHT22;2601;50.224;10.126;2022-10-18T08:09:20;17.40;99.90
5164;DHT22;2601;50.224;10.126;2022-10-18T08:11:46;17.50;99.90
5164;DHT22;2601;50.224;10.126;2022-10-18T08:14:11;17.50;99.90
5164;DHT22;2601;50.224;10.126;2022-10-18T08:16:37;17.50;99.90
5164;DHT22;2601;50.224;10.126;2022-10-18T08:19:03;17.10;99.90
5164;DHT22;2601;50.224;10.126;2022-10-18T08:21:28;16.80;99.90
5164;DHT22;2601;50.224;10.126;2022-10-18T08:23:54;16.50;99.90
5164;DHT22;2601;50.224;10.126;2022-10-18T08:26:21;16.40;99.90
5164;DHT22;2601;50.224;10.126;2022-10-18T08:28:48;16.40;99.90
5164;DHT22;2601;50.224;10.126;2022-10-18T08:31:15;16.40;99.90
5164;DHT22;2601;50.224;10.126;2022-10-18T08:33:42;16.40;99.90
5164;DHT22;2601;50.224;10.126;2022-10-18T08:36:11;16.40;99.90
5164;DHT22;2601;50.224;10.126;2022-10-18T08:38:39;16.40;99.90
5164;DHT22;2601;50.224;10.126;2022-10-18T08:46:37;16.30;99.90
5164;DHT22;2601;50.224;10.126;2022-10-18T08:49:04;16.30;99.90
5164;DHT22;2601;50.224;10.126;2022-10-18T08:51:44;16.20;99.90
5164;DHT22;2601;50.224;10.126;2022-10-18T08:54:14;16.30;99.90
5164;DHT22;2601;50.224;10.126;2022-10-18T08:56:45;16.40;99.90
5164;DHT22;2601;50.224;10.126;2022-10-18T08:59:12;16.30;99.90
5164;DHT22;2601;50.224;10.126;2022-10-18T09:05:08;15.80;99.90
5164;DHT22;2601;50.224;10.126;2022-10-18T09:10:28;15.70;99.90
5164;DHT22;2601;50.224;10.126;2022-10-18T09:15:54;16.00;99.90
5164;DHT22;2601;50.224;10.126;2022-10-18T09:21:04;16.20;99.90
5164;DHT22;2601;50.224;10.126;2022-10-18T09:23:51;16.30;99.90
5164;DHT22;2601;50.224;10.126;2022-10-18T09:26:23;16.20;99.90
5164;DHT22;2601;50.224;10.126;2022-10-18T09:33:59;16.10;99.90
5164;DHT22;2601;50.224;10.126;2022-10-18T09:36:30;16.00;99.90
5164;DHT22;2601;50.224;10.126;2022-10-18T09:39:15;16.00;99.90
5164;DHT22;2601;50.224;10.126;2022-10-18T09:44:54;16.00;99.90
5164;DHT22;2601;50.224;10.126;2022-10-18T09:47:46;16.10;99.90
5164;DHT22;2601;50.224;10.126;2022-10-18T09:50:28;16.30;99.90
5164;DHT22;2601;50.224;10.126;2022-10-18T09:53:07;16.40;99.90
5164;DHT22;2601;50.224;10.126;2022-10-18T09:55:50;16.70;99.90
5164;DHT22;2601;50.224;10.126;2022-10-18T09:58:18;16.90;99.90
5164;DHT22;2601;50.224;10.126;2022-10-18T10:00:50;17.20;99.90
5164;DHT22;2601;50.224;10.126;2022-10-18T10:03:17;17.40;99.90
5164;DHT22;2601;50.224;10.126;2022-10-18T10:05:43;17.90;99.90
5164;DHT22;2601;50.224;10.126;2022-10-18T10:08:09;18.10;99.90
5164;DHT22;2601;50.224;10.126;2022-10-18T10:10:38;17.90;99.90
5164;DHT22;2601;50.224;10.126;2022-10-18T10:13:27;18.30;99.90
5164;DHT22;2601;50.224;10.126;2022-10-18T10:15:55;18.30;99.90
5164;DHT22;2601;50.224;10.126;2022-10-18T10:18:29;18.30;99.90
5164;DHT22;2601;50.224;10.126;2022-10-18T10:20:58;18.10;99.90
5164;DHT22;2601;50.224;10.126;2022-10-18T10:23:36;18.10;99.90
5164;DHT22;2601;50.224;10.126;2022-10-18T10:26:17;18.00;99.90
5164;DHT22;2601;50.224;10.126;2022-10-18T10:28:45;17.90;99.90
5164;DHT22;2601;50.224;10.126;2022-10-18T10:31:33;17.90;99.90
5164;DHT22;2601;50.224;10.126;2022-10-18T10:36:32;17.90;99.90
5164;DHT22;2601;50.224;10.126;2022-10-18T10:39:06;17.80;99.90
5164;DHT22;2601;50.224;10.126;2022-10-18T10:41:35;17.60;99.90
5164;DHT22;2601;50.224;10.126;2022-10-18T10:44:03;17.50;99.90
5164;DHT22;2601;50.224;10.126;2022-10-18T10:46:34;17.50;99.90
5164;DHT22;2601;50.224;10.126;2022-10-18T10:49:01;17.50;99.90
5164;DHT22;2601;50.224;10.126;2022-10-18T10:51:31;17.50;99.90
5164;DHT22;2601;50.224;10.126;2022-10-18T10:56:31;17.80;99.90
5164;DHT22;2601;50.224;10.126;2022-10-18T10:59:06;17.90;99.90
5164;DHT22;2601;50.224;10.126;2022-10-18T11:01:33;18.20;99.90
5164;DHT22;2601;50.224;10.126;2022-10-18T11:04:23;18.40;99.90
5164;DHT22;2601;50.224;10.126;2022-10-18T11:09:43;19.00;99.90
5164;DHT22;2601;50.224;10.126;2022-10-18T11:14:44;19.00;99.90
5164;DHT22;2601;50.224;10.126;2022-10-18T11:17:35;19.10;99.90
5164;DHT22;2601;50.224;10.126;2022-10-18T11:25:23;21.50;99.90
5164;DHT22;2601;50.224;10.126;2022-10-18T11:28:05;22.50;99.90
5164;DHT22;2601;50.224;10.126;2022-10-18T11:30:53;22.80;99.90
5164;DHT22;2601;50.224;10.126;2022-10-18T11:36:26;22.70;99.90
5164;DHT22;2601;50.224;10.126;2022-10-18T11:55:34;23.10;99.90
5164;DHT22;2601;50.224;10.126;2022-10-18T12:00:48;23.40;99.90
5164;DHT22;2601;50.224;10.126;2022-10-18T12:05:51;24.20;99.90
5164;DHT22;2601;50.224;10.126;2022-10-18T12:08:27;23.00;99.90
5164;DHT22;2601;50.224;10.126;2022-10-18T12:10:57;22.10;99.90
5164;DHT22;2601;50.224;10.126;2022-10-18T12:16:10;21.40;99.90
5164;DHT22;2601;50.224;10.126;2022-10-18T12:18:48;21.00;99.90
5164;DHT22;2601;50.224;10.126;2022-10-18T12:21:19;20.20;99.90
5164;DHT22;2601;50.224;10.126;2022-10-18T12:26:15;19.70;99.90
5164;DHT22;2601;50.224;10.126;2022-10-18T12:28:50;19.90;99.90
5164;DHT22;2601;50.224;10.126;2022-10-18T12:31:36;20.40;99.90
5164;DHT22;2601;50.224;10.126;2022-10-18T12:37:25;20.40;99.90
5164;DHT22;2601;50.224;10.126;2022-10-18T12:40:22;20.50;99.90
5164;DHT22;2601;50.224;10.126;2022-10-18T12:42:50;20.50;99.90
5164;DHT22;2601;50.224;10.126;2022-10-18T12:47:48;19.80;99.90
5164;DHT22;2601;50.224;10.126;2022-10-18T12:50:24;19.60;99.90
5164;DHT22;2601;50.224;10.126;2022-10-18T12:55:37;19.30;99.90
5164;DHT22;2601;50.224;10.126;2022-10-18T13:18:57;19.90;99.90
5164;DHT22;2601;50.224;10.126;2022-10-18T13:21:40;19.90;99.90
5164;DHT22;2601;50.224;10.126;2022-10-18T13:24:22;19.80;99.90
5164;DHT22;2601;50.224;10.126;2022-10-18T13:41:10;20.00;99.90
5164;DHT22;2601;50.224;10.126;2022-10-18T13:46:21;19.60;99.90
5164;DHT22;2601;50.224;10.126;2022-10-18T13:48:51;19.60;99.90
5164;DHT22;2601;50.224;10.126;2022-10-18T13:51:33;19.50;99.90
5164;DHT22;2601;50.224;10.126;2022-10-18T14:03:18;20.80;99.90
5164;DHT22;2601;50.224;10.126;2022-10-18T14:08:04;24.30;99.90
5164;DHT22;2601;50.224;10.126;2022-10-18T14:10:42;25.80;99.90
5164;DHT22;2601;50.224;10.126;2022-10-18T14:13:19;27.00;99.90
5164;DHT22;2601;50.224;10.126;2022-10-18T14:15:49;27.90;97.90
5164;DHT22;2601;50.224;10.126;2022-10-18T14:18:23;27.60;96.70
5164;DHT22;2601;50.224;10.126;2022-10-18T14:20:54;27.80;96.50
5164;DHT22;2601;50.224;10.126;2022-10-18T14:23:26;27.40;95.90
5164;DHT22;2601;50.224;10.126;2022-10-18T14:28:35;28.20;94.10
5164;DHT22;2601;50.224;10.126;2022-10-18T14:31:10;27.60;95.10
5164;DHT22;2601;50.224;10.126;2022-10-18T14:33:40;28.10;95.10
5164;DHT22;2601;50.224;10.126;2022-10-18T14:36:14;28.20;92.80
5164;DHT22;2601;50.224;10.126;2022-10-18T14:41:16;28.30;92.30
5164;DHT22;2601;50.224;10.126;2022-10-18T14:43:45;28.40;91.70
5164;DHT22;2601;50.224;10.126;2022-10-18T14:46:17;27.10;92.90
5164;DHT22;2601;50.224;10.126;2022-10-18T14:48:58;27.20;93.80
5164;DHT22;2601;50.224;10.126;2022-10-18T14:51:26;27.90;93.20
5164;DHT22;2601;50.224;10.126;2022-10-18T14:53:53;28.30;91.90
5164;DHT22;2601;50.224;10.126;2022-10-18T14:56:38;28.10;92.10
5164;DHT22;2601;50.224;10.126;2022-10-18T14:59:20;27.70;92.80
5164;DHT22;2601;50.224;10.126;2022-10-18T15:04:35;26.80;93.80
5164;DHT22;2601;50.224;10.126;2022-10-18T15:07:03;25.60;95.50
5164;DHT22;2601;50.224;10.126;2022-10-18T15:09:30;24.50;97.30
5164;DHT22;2601;50.224;10.126;2022-10-18T15:11:57;23.80;99.90
5164;DHT22;2601;50.224;10.126;2022-10-18T15:14:26;24.60;99.80
5164;DHT22;2601;50.224;10.126;2022-10-18T15:17:01;25.40;98.50
5164;DHT22;2601;50.224;10.126;2022-10-18T15:19:35;25.60;97.50
5164;DHT22;2601;50.224;10.126;2022-10-18T15:22:06;25.30;98.00
5164;DHT22;2601;50.224;10.126;2022-10-18T15:24:37;24.60;98.90
5164;DHT22;2601;50.224;10.126;2022-10-18T15:27:24;24.60;99.90
5164;DHT22;2601;50.224;10.126;2022-10-18T15:29:51;24.10;99.90
5164;DHT22;2601;50.224;10.126;2022-10-18T15:32:30;23.80;99.90
5164;DHT22;2601;50.224;10.126;2022-10-18T15:35:08;23.30;99.90
5164;DHT22;2601;50.224;10.126;2022-10-18T15:37:42;22.50;99.90
5164;DHT22;2601;50.224;10.126;2022-10-18T15:40:35;21.70;99.90
5164;DHT22;2601;50.224;10.126;2022-10-18T15:43:03;20.80;99.90
5164;DHT22;2601;50.224;10.126;2022-10-18T15:45:36;20.20;99.90
5164;DHT22;2601;50.224;10.126;2022-10-18T15:56:00;19.30;99.90
5164;DHT22;2601;50.224;10.126;2022-10-18T15:58:27;19.10;99.90
5164;DHT22;2601;50.224;10.126;2022-10-18T16:00:57;18.80;99.90
5164;DHT22;2601;50.224;10.126;2022-10-18T16:03:24;18.50;99.90
5164;DHT22;2601;50.224;10.126;2022-10-18T16:05:58;18.40;99.90
5164;DHT22;2601;50.224;10.126;2022-10-18T16:08:28;18.20;99.90
5164;DHT22;2601;50.224;10.126;2022-10-18T16:11:02;18.10;99.90
5164;DHT22;2601;50.224;10.126;2022-10-18T16:13:27;18.00;99.90
5164;DHT22;2601;50.224;10.126;2022-10-18T16:15:53;17.90;99.90
5164;DHT22;2601;50.224;10.126;2022-10-18T16:18:24;17.80;99.90
5164;DHT22;2601;50.224;10.126;2022-10-18T16:20:51;17.70;99.90
5164;DHT22;2601;50.224;10.126;2022-10-18T16:23:23;17.60;99.90
5164;DHT22;2601;50.224;10.126;2022-10-18T16:25:49;17.50;99.90
5164;DHT22;2601;50.224;10.126;2022-10-18T16:28:19;17.40;99.90
5164;DHT22;2601;50.224;10.126;2022-10-18T16:30:59;17.30;99.90
5164;DHT22;2601;50.224;10.126;2022-10-18T16:33:25;17.20;99.90
5164;DHT22;2601;50.224;10.126;2022-10-18T16:35:52;17.10;99.90
5164;DHT22;2601;50.224;10.126;2022-10-18T16:38:30;17.00;99.90
5164;DHT22;2601;50.224;10.126;2022-10-18T16:40:57;16.90;99.90
5164;DHT22;2601;50.224;10.126;2022-10-18T16:43:23;16.80;99.90
5164;DHT22;2601;50.224;10.126;2022-10-18T16:45:50;16.70;99.90
5164;DHT22;2601;50.224;10.126;2022-10-18T16:48:19;16.60;99.90
5164;DHT22;2601;50.224;10.126;2022-10-18T16:50:45;16.50;99.90
5164;DHT22;2601;50.224;10.126;2022-10-18T16:53:12;16.50;99.90
5164;DHT22;2601;50.224;10.126;2022-10-18T16:55:38;16.40;99.90
5164;DHT22;2601;50.224;10.126;2022-10-18T16:58:05;16.20;99.90
5164;DHT22;2601;50.224;10.126;2022-10-18T17:00:32;16.10;99.90
5164;DHT22;2601;50.224;10.126;2022-10-18T17:02:58;16.00;99.90
5164;DHT22;2601;50.224;10.126;2022-10-18T17:05:23;15.90;99.90
5164;DHT22;2601;50.224;10.126;2022-10-18T17:07:49;15.90;99.90
5164;DHT22;2601;50.224;10.126;2022-10-18T17:10:18;15.90;99.90
5164;DHT22;2601;50.224;10.126;2022-10-18T17:12:44;15.80;99.90
5164;DHT22;2601;50.224;10.126;2022-10-18T17:15:11;15.70;99.90
5164;DHT22;2601;50.224;10.126;2022-10-18T17:17:38;15.70;99.90
5164;DHT22;2601;50.224;10.126;2022-10-18T17:20:05;15.70;99.90
5164;DHT22;2601;50.224;10.126;2022-10-18T17:22:31;15.60;99.90
5164;DHT22;2601;50.224;10.126;2022-10-18T17:24:57;15.40;99.90
5164;DHT22;2601;50.224;10.126;2022-10-18T17:27:23;15.40;99.90
5164;DHT22;2601;50.224;10.126;2022-10-18T17:29:49;15.30;99.90
5164;DHT22;2601;50.224;10.126;2022-10-18T17:32:15;15.20;99.90
5164;DHT22;2601;50.224;10.126;2022-10-18T17:34:40;15.10;99.90
5164;DHT22;2601;50.224;10.126;2022-10-18T17:37:07;15.20;99.90
5164;DHT22;2601;50.224;10.126;2022-10-18T17:39:33;15.00;99.90
5164;DHT22;2601;50.224;10.126;2022-10-18T17:41:59;15.00;99.90
5164;DHT22;2601;50.224;10.126;2022-10-18T17:44:25;14.90;99.90
5164;DHT22;2601;50.224;10.126;2022-10-18T17:46:51;15.10;99.90
5164;DHT22;2601;50.224;10.126;2022-10-18T17:49:18;15.10;99.90
5164;DHT22;2601;50.224;10.126;2022-10-18T17:51:44;15.00;99.90
5164;DHT22;2601;50.224;10.126;2022-10-18T17:54:11;15.00;99.90
5164;DHT22;2601;50.224;10.126;2022-10-18T17:56:38;14.90;99.90
5164;DHT22;2601;50.224;10.126;2022-10-18T17:59:04;14.90;99.90
5164;DHT22;2601;50.224;10.126;2022-10-18T18:01:30;14.80;99.90
5164;DHT22;2601;50.224;10.126;2022-10-18T18:03:57;15.00;99.90
5164;DHT22;2601;50.224;10.126;2022-10-18T18:06:41;15.00;99.90
5164;DHT22;2601;50.224;10.126;2022-10-18T18:09:10;14.90;99.90
5164;DHT22;2601;50.224;10.126;2022-10-18T18:11:39;14.80;99.90
5164;DHT22;2601;50.224;10.126;2022-10-18T18:14:05;14.80;99.90
5164;DHT22;2601;50.224;10.126;2022-10-18T18:16:36;14.70;99.90
5164;DHT22;2601;50.224;10.126;2022-10-18T18:19:02;14.70;99.90
5164;DHT22;2601;50.224;10.126;2022-10-18T18:21:28;14.70;99.90
5164;DHT22;2601;50.224;10.126;2022-10-18T18:23:54;14.70;99.90
5164;DHT22;2601;50.224;10.126;2022-10-18T18:26:21;14.70;99.90
5164;DHT22;2601;50.224;10.126;2022-10-18T18:28:47;14.90;99.90
5164;DHT22;2601;50.224;10.126;2022-10-18T18:31:16;14.80;99.90
5164;DHT22;2601;50.224;10.126;2022-10-18T18:33:42;14.70;99.90
5164;DHT22;2601;50.224;10.126;2022-10-18T18:36:09;14.70;99.90
5164;DHT22;2601;50.224;10.126;2022-10-18T18:38:36;14.70;99.90
5164;DHT22;2601;50.224;10.126;2022-10-18T18:43:40;14.70;99.90
5164;DHT22;2601;50.224;10.126;2022-10-18T18:46:06;14.70;99.90
5164;DHT22;2601;50.224;10.126;2022-10-18T18:48:33;14.70;99.90
5164;DHT22;2601;50.224;10.126;2022-10-18T18:51:01;14.70;99.90
5164;DHT22;2601;50.224;10.126;2022-10-18T18:53:27;14.90;99.90
5164;DHT22;2601;50.224;10.126;2022-10-18T18:55:53;14.90;99.90